Time;durP1;ratioP1;P1;durP2;ratioP2;P2;SDS_P1;SDS_P2;PMS_P1;PMS_P2;Temp;Humidity;BMP_temperature;BMP_pressure;BME280_temperature;BME280_humidity;BME280_pressure;Samples;Min_cycle;Max_cycle;Signal;HPM_P1;HPM_P2
2022/10/26 00:00:22;;;;;;;1.40;1.20;;;;;;;;;;4994196;28;20188;-53
2022/10/26 00:02:47;;;;;;;1.50;1.20;;;;;;;;;;5018099;28;20637;-56
2022/10/26 00:05:12;;;;;;;2.07;1.40;;;;;;;;;;4997276;28;20204;-55
2022/10/26 00:07:37;;;;;;;1.53;1.20;;;;;;;;;;4995568;28;20582;-57
2022/10/26 00:10:03;;;;;;;1.60;1.43;;;;;;;;;;5000588;28;20596;-50
2022/10/26 00:12:28;;;;;;;1.87;1.40;;;;;;;;;;4996898;28;20192;-50
2022/10/26 00:14:54;;;;;;;1.90;1.50;;;;;;;;;;4994168;28;20203;-54
2022/10/26 00:17:19;;;;;;;2.73;1.40;;;;;;;;;;4994963;28;20294;-52
2022/10/26 00:19:44;;;;;;;1.50;1.20;;;;;;;;;;4998005;28;20628;-54
2022/10/26 00:22:09;;;;;;;1.97;1.30;;;;;;;;;;4997650;28;20183;-50
2022/10/26 00:24:35;;;;;;;1.37;1.20;;;;;;;;;;4995127;28;20203;-50
2022/10/26 00:27:00;;;;;;;1.90;1.40;;;;;;;;;;4994326;28;20545;-54
2022/10/26 00:29:25;;;;;;;1.73;1.33;;;;;;;;;;4996819;28;20565;-54
2022/10/26 00:31:51;;;;;;;2.50;1.43;;;;;;;;;;4997456;28;20527;-55
2022/10/26 00:34:16;;;;;;;1.53;1.20;;;;;;;;;;4995855;28;20196;-50
2022/10/26 00:36:41;;;;;;;1.73;1.13;;;;;;;;;;5001675;28;20222;-53
2022/10/26 00:39:11;;;;;;;2.40;1.47;;;;;;;;;;4989985;28;20552;-56
2022/10/26 00:41:36;;;;;;;2.03;1.50;;;;;;;;;;4997570;28;20650;-55
2022/10/26 00:44:43;;;;;;;1.87;1.30;;;;;;;;;;4996705;28;20200;-55
2022/10/26 00:47:13;;;;;;;1.63;1.20;;;;;;;;;;4974117;28;20169;-54
2022/10/26 00:49:38;;;;;;;1.63;1.20;;;;;;;;;;4995143;28;20172;-55
2022/10/26 00:52:05;;;;;;;1.93;1.40;;;;;;;;;;4995829;28;20552;-54
2022/10/26 00:54:30;;;;;;;2.10;1.40;;;;;;;;;;4995146;28;20579;-53
2022/10/26 00:56:56;;;;;;;1.47;1.20;;;;;;;;;;5004638;28;20668;-55
2022/10/26 00:59:21;;;;;;;3.00;1.20;;;;;;;;;;4999578;28;20270;-54
2022/10/26 01:01:47;;;;;;;1.53;1.10;;;;;;;;;;4998908;28;20197;-54
2022/10/26 01:04:13;;;;;;;1.90;1.40;;;;;;;;;;4994000;28;20277;-55
2022/10/26 01:06:40;;;;;;;1.60;1.33;;;;;;;;;;4989950;28;20318;-53
2022/10/26 01:09:05;;;;;;;2.00;1.33;;;;;;;;;;4996981;28;20184;-54
2022/10/26 01:11:31;;;;;;;1.70;1.37;;;;;;;;;;4995165;28;20185;-54
2022/10/26 01:13:57;;;;;;;1.50;1.30;;;;;;;;;;4992144;28;20227;-55
2022/10/26 01:16:54;;;;;;;1.77;1.30;;;;;;;;;;4999000;28;20208;-53
2022/10/26 01:19:22;;;;;;;2.07;1.40;;;;;;;;;;4995144;28;20180;-55
2022/10/26 01:22:02;;;;;;;1.70;1.30;;;;;;;;;;4998695;28;20215;-52
2022/10/26 01:24:30;;;;;;;1.60;1.23;;;;;;;;;;4996909;28;20208;-54
2022/10/26 01:27:30;;;;;;;1.80;1.30;;;;;;;;;;4994281;28;20184;-52
2022/10/26 01:30:19;;;;;;;3.17;1.30;;;;;;;;;;4998635;28;20228;-54
2022/10/26 01:33:15;;;;;;;1.93;1.30;;;;;;;;;;5001438;28;20258;-50
2022/10/26 01:36:02;;;;;;;1.40;1.30;;;;;;;;;;4996566;28;20204;-50
2022/10/26 01:38:41;;;;;;;1.30;1.10;;;;;;;;;;5003376;28;20184;-55
2022/10/26 01:41:45;;;;;;;3.67;1.30;;;;;;;;;;4994098;28;20275;-53
2022/10/26 01:44:16;;;;;;;1.80;1.13;;;;;;;;;;4994275;28;20570;-53
2022/10/26 01:46:44;;;;;;;2.17;1.13;;;;;;;;;;5000309;28;20318;-52
2022/10/26 01:49:12;;;;;;;2.07;1.47;;;;;;;;;;4999296;28;20189;-54
2022/10/26 01:51:39;;;;;;;1.17;1.07;;;;;;;;;;4990588;28;20650;-51
2022/10/26 01:54:04;;;;;;;1.90;1.33;;;;;;;;;;4999264;28;20354;-54
2022/10/26 01:56:34;;;;;;;1.50;1.30;;;;;;;;;;5000366;28;20843;-55
2022/10/26 01:59:30;;;;;;;1.80;1.40;;;;;;;;;;5000993;28;20212;-57
2022/10/26 02:02:17;;;;;;;1.33;1.20;;;;;;;;;;4992694;28;20196;-54
2022/10/26 02:05:10;;;;;;;1.40;1.13;;;;;;;;;;4992002;28;20204;-54
2022/10/26 02:08:03;;;;;;;1.30;1.20;;;;;;;;;;5000784;28;20196;-53
2022/10/26 02:11:01;;;;;;;1.43;1.27;;;;;;;;;;4995155;28;20184;-53
2022/10/26 02:13:38;;;;;;;1.40;1.20;;;;;;;;;;4994861;28;20245;-54
2022/10/26 02:16:13;;;;;;;2.50;1.30;;;;;;;;;;4988652;28;20243;-51
2022/10/26 02:18:52;;;;;;;2.27;1.20;;;;;;;;;;5000331;28;20175;-54
2022/10/26 02:21:21;;;;;;;1.73;1.40;;;;;;;;;;4995545;28;20213;-53
2022/10/26 02:23:48;;;;;;;1.90;1.23;;;;;;;;;;5000430;28;20219;-52
2022/10/26 02:26:15;;;;;;;2.20;1.60;;;;;;;;;;5004558;28;20185;-53
2022/10/26 02:28:48;;;;;;;1.87;1.53;;;;;;;;;;5002650;28;20530;-53
2022/10/26 02:31:14;;;;;;;1.47;1.20;;;;;;;;;;4997897;28;20190;-54
2022/10/26 02:33:44;;;;;;;1.50;1.20;;;;;;;;;;5000634;28;20209;-54
2022/10/26 02:36:13;;;;;;;1.30;1.10;;;;;;;;;;4996421;28;20273;-55
2022/10/26 02:38:39;;;;;;;1.63;1.37;;;;;;;;;;5005347;28;20177;-54
2022/10/26 02:41:05;;;;;;;1.43;1.20;;;;;;;;;;4998989;28;20695;-51
2022/10/26 02:43:35;;;;;;;1.60;1.20;;;;;;;;;;5002626;28;20629;-55
2022/10/26 02:46:06;;;;;;;1.40;1.30;;;;;;;;;;5000438;28;20181;-52
2022/10/26 02:48:31;;;;;;;1.70;1.30;;;;;;;;;;5001553;28;20188;-55
2022/10/26 02:51:12;;;;;;;1.70;1.27;;;;;;;;;;5002993;28;20177;-52
2022/10/26 02:53:45;;;;;;;1.60;1.20;;;;;;;;;;4997436;28;20246;-55
2022/10/26 02:56:17;;;;;;;1.47;1.20;;;;;;;;;;4998522;28;20212;-54
2022/10/26 02:58:45;;;;;;;2.20;1.43;;;;;;;;;;5004975;28;20192;-52
2022/10/26 03:01:12;;;;;;;1.60;1.33;;;;;;;;;;4996215;28;20533;-54
2022/10/26 03:03:37;;;;;;;2.00;1.30;;;;;;;;;;4988801;28;20217;-54
2022/10/26 03:06:02;;;;;;;2.23;1.40;;;;;;;;;;5003772;28;20177;-55
2022/10/26 03:08:28;;;;;;;1.33;1.00;;;;;;;;;;4995363;28;20239;-54
2022/10/26 03:10:53;;;;;;;1.20;1.10;;;;;;;;;;4987315;28;20708;-55
2022/10/26 03:13:18;;;;;;;1.83;1.10;;;;;;;;;;4997436;28;20279;-55
2022/10/26 03:15:43;;;;;;;1.77;1.40;;;;;;;;;;4999362;28;20219;-53
2022/10/26 03:18:09;;;;;;;2.43;1.40;;;;;;;;;;5003962;28;20586;-54
2022/10/26 03:20:34;;;;;;;1.60;1.30;;;;;;;;;;5005442;28;20191;-53
2022/10/26 03:23:00;;;;;;;1.60;1.20;;;;;;;;;;4991085;28;20243;-50
2022/10/26 03:25:25;;;;;;;1.37;1.20;;;;;;;;;;5004595;28;20284;-54
2022/10/26 03:27:58;;;;;;;2.13;1.10;;;;;;;;;;5003781;28;20188;-51
2022/10/26 03:30:23;;;;;;;1.30;1.10;;;;;;;;;;4999909;28;20199;-56
2022/10/26 03:32:49;;;;;;;1.20;1.10;;;;;;;;;;4997262;28;20205;-52
2022/10/26 03:35:14;;;;;;;1.50;1.20;;;;;;;;;;4995302;28;20255;-50
2022/10/26 03:37:39;;;;;;;1.23;1.13;;;;;;;;;;5000904;28;20205;-51
2022/10/26 03:40:05;;;;;;;1.40;1.20;;;;;;;;;;5008510;28;20593;-52
2022/10/26 03:42:36;;;;;;;1.60;1.30;;;;;;;;;;5007703;28;20196;-52
2022/10/26 03:45:02;;;;;;;1.90;1.50;;;;;;;;;;5007207;28;20559;-51
2022/10/26 03:47:28;;;;;;;1.53;1.20;;;;;;;;;;4999307;28;20268;-51
2022/10/26 03:49:53;;;;;;;3.30;1.30;;;;;;;;;;4994021;28;20187;-53
2022/10/26 03:52:18;;;;;;;1.20;1.03;;;;;;;;;;5005597;28;20199;-54
2022/10/26 03:54:44;;;;;;;1.70;1.17;;;;;;;;;;5002577;28;20672;-52
2022/10/26 03:57:09;;;;;;;1.40;1.03;;;;;;;;;;5006121;28;20204;-52
2022/10/26 03:59:34;;;;;;;1.83;1.20;;;;;;;;;;5002284;28;20184;-52
2022/10/26 04:01:59;;;;;;;1.53;1.30;;;;;;;;;;5001804;28;20185;-53
2022/10/26 04:04:25;;;;;;;1.50;1.23;;;;;;;;;;5002452;28;20204;-54
2022/10/26 04:06:50;;;;;;;1.10;1.00;;;;;;;;;;5000004;28;20188;-55
2022/10/26 04:09:15;;;;;;;1.70;1.17;;;;;;;;;;5003140;28;20204;-54
2022/10/26 04:11:41;;;;;;;1.90;1.10;;;;;;;;;;5004697;28;20657;-54
2022/10/26 04:14:06;;;;;;;1.43;1.10;;;;;;;;;;5002916;28;20672;-54
2022/10/26 04:16:31;;;;;;;1.33;1.10;;;;;;;;;;5005245;28;20657;-53
2022/10/26 04:18:56;;;;;;;1.30;1.20;;;;;;;;;;4997540;28;20196;-54
2022/10/26 04:21:22;;;;;;;1.20;1.10;;;;;;;;;;4997965;28;20567;-54
2022/10/26 04:23:47;;;;;;;1.67;1.10;;;;;;;;;;5001456;28;20235;-54
2022/10/26 04:26:12;;;;;;;1.17;1.07;;;;;;;;;;5003390;28;20628;-54
2022/10/26 04:28:38;;;;;;;1.50;1.40;;;;;;;;;;5001244;28;20251;-55
2022/10/26 04:31:03;;;;;;;1.40;1.10;;;;;;;;;;5002443;28;20185;-55
2022/10/26 04:33:28;;;;;;;1.13;1.03;;;;;;;;;;4996736;28;20236;-54
2022/10/26 04:36:00;;;;;;;2.50;1.30;;;;;;;;;;5001982;28;20347;-55
2022/10/26 04:38:25;;;;;;;2.00;1.30;;;;;;;;;;4991822;28;20271;-55
2022/10/26 04:40:51;;;;;;;2.30;1.50;;;;;;;;;;5017760;28;20694;-54
2022/10/26 04:43:16;;;;;;;2.63;1.30;;;;;;;;;;4994811;28;20201;-54
2022/10/26 04:45:41;;;;;;;1.30;1.20;;;;;;;;;;5003588;28;20180;-54
2022/10/26 04:48:09;;;;;;;1.40;1.30;;;;;;;;;;5003419;28;20271;-53
2022/10/26 04:50:35;;;;;;;1.17;1.07;;;;;;;;;;5000294;28;20180;-50
2022/10/26 04:53:00;;;;;;;1.60;1.23;;;;;;;;;;5001594;28;20211;-51
2022/10/26 04:55:26;;;;;;;1.70;1.30;;;;;;;;;;5005997;28;20701;-52
2022/10/26 04:57:51;;;;;;;1.60;1.20;;;;;;;;;;4997924;28;20216;-55
2022/10/26 05:00:16;;;;;;;1.53;1.40;;;;;;;;;;5005218;28;20180;-55
2022/10/26 05:02:42;;;;;;;1.40;1.20;;;;;;;;;;5008501;28;20209;-54
2022/10/26 05:05:07;;;;;;;1.40;1.30;;;;;;;;;;4999558;28;20180;-53
2022/10/26 05:07:32;;;;;;;1.60;1.20;;;;;;;;;;4992854;28;20354;-54
2022/10/26 05:09:58;;;;;;;1.13;1.03;;;;;;;;;;4990173;28;20268;-54
2022/10/26 05:12:23;;;;;;;1.47;1.10;;;;;;;;;;4995867;28;20195;-52
2022/10/26 05:14:48;;;;;;;2.23;1.30;;;;;;;;;;4994997;28;20632;-56
2022/10/26 05:17:14;;;;;;;1.50;1.27;;;;;;;;;;4999317;28;20270;-53
2022/10/26 05:19:40;;;;;;;2.50;1.20;;;;;;;;;;4990205;28;20185;-54
2022/10/26 05:22:05;;;;;;;2.10;1.23;;;;;;;;;;4993686;28;20180;-53
2022/10/26 05:24:30;;;;;;;1.63;1.10;;;;;;;;;;4997986;28;20255;-50
2022/10/26 05:26:55;;;;;;;1.40;1.10;;;;;;;;;;4999973;28;20181;-50
2022/10/26 05:29:21;;;;;;;2.40;1.43;;;;;;;;;;4999988;28;20180;-48
2022/10/26 05:31:46;;;;;;;5.63;2.70;;;;;;;;;;4991838;28;20571;-55
2022/10/26 05:34:11;;;;;;;8.97;2.77;;;;;;;;;;4993110;28;20192;-57
2022/10/26 05:36:37;;;;;;;4.70;2.90;;;;;;;;;;4997638;28;20649;-54
2022/10/26 05:39:02;;;;;;;4.80;2.70;;;;;;;;;;4988875;28;20582;-54
2022/10/26 05:41:27;;;;;;;5.03;3.03;;;;;;;;;;4993474;28;20185;-57
2022/10/26 05:43:53;;;;;;;8.37;3.20;;;;;;;;;;4994641;28;20283;-57
2022/10/26 05:46:18;;;;;;;4.00;2.90;;;;;;;;;;4992542;28;20184;-57
2022/10/26 05:48:43;;;;;;;5.33;3.03;;;;;;;;;;4989009;28;20307;-57
2022/10/26 05:51:09;;;;;;;6.40;3.23;;;;;;;;;;5000410;28;20184;-58
2022/10/26 05:53:35;;;;;;;6.43;3.20;;;;;;;;;;4994792;28;20320;-55
2022/10/26 05:56:00;;;;;;;4.37;3.13;;;;;;;;;;4992875;28;20235;-53
2022/10/26 05:58:26;;;;;;;8.77;3.10;;;;;;;;;;4940015;28;20223;-59
2022/10/26 06:01:07;;;;;;;5.83;3.23;;;;;;;;;;4995829;28;20188;-59
2022/10/26 06:03:49;;;;;;;5.60;3.20;;;;;;;;;;4995295;28;20215;-59
2022/10/26 06:06:15;;;;;;;5.97;2.93;;;;;;;;;;4995976;28;20365;-58
2022/10/26 06:08:41;;;;;;;6.63;3.53;;;;;;;;;;4994345;28;20734;-57
2022/10/26 06:11:07;;;;;;;8.97;3.30;;;;;;;;;;4993921;28;20663;-58
2022/10/26 06:13:33;;;;;;;4.30;2.97;;;;;;;;;;4989547;28;20291;-57
2022/10/26 06:16:50;;;;;;;7.97;3.13;;;;;;;;;;4994553;28;20219;-58
2022/10/26 06:19:21;;;;;;;6.00;3.30;;;;;;;;;;4992198;28;20203;-57
2022/10/26 06:22:06;;;;;;;6.20;3.27;;;;;;;;;;4995903;28;20187;-57
2022/10/26 06:24:40;;;;;;;4.83;2.60;;;;;;;;;;4992971;28;20203;-54
2022/10/26 06:27:22;;;;;;;3.63;2.23;;;;;;;;;;4989041;28;20267;-52
2022/10/26 06:30:11;;;;;;;3.40;2.50;;;;;;;;;;5005905;28;20180;-53
2022/10/26 06:32:38;;;;;;;4.13;2.90;;;;;;;;;;4993842;28;20184;-53
2022/10/26 06:35:42;;;;;;;5.07;2.40;;;;;;;;;;4991414;28;20184;-51
2022/10/26 06:38:11;;;;;;;4.03;2.63;;;;;;;;;;4991471;28;20220;-51
2022/10/26 06:40:38;;;;;;;3.03;2.00;;;;;;;;;;4989816;28;20882;-53
2022/10/26 06:43:09;;;;;;;3.37;2.27;;;;;;;;;;4994234;28;20200;-53
2022/10/26 06:45:35;;;;;;;3.73;2.60;;;;;;;;;;4996753;28;20224;-52
2022/10/26 06:48:05;;;;;;;5.40;2.50;;;;;;;;;;4997868;28;20184;-54
2022/10/26 06:50:41;;;;;;;5.77;2.70;;;;;;;;;;5001874;28;20282;-53
2022/10/26 06:53:35;;;;;;;5.10;2.33;;;;;;;;;;5003190;28;21040;-53
2022/10/26 06:56:00;;;;;;;4.83;2.40;;;;;;;;;;4989617;28;20208;-53
2022/10/26 06:58:34;;;;;;;4.40;2.20;;;;;;;;;;4992584;28;20560;-54
2022/10/26 07:00:59;;;;;;;3.60;2.30;;;;;;;;;;5002299;28;20196;-54
2022/10/26 07:03:24;;;;;;;7.63;2.60;;;;;;;;;;4997486;28;20208;-55
2022/10/26 07:05:50;;;;;;;5.37;2.60;;;;;;;;;;4993633;28;20552;-54
2022/10/26 07:08:15;;;;;;;4.17;2.30;;;;;;;;;;5003767;28;20235;-55
2022/10/26 07:10:41;;;;;;;3.53;2.03;;;;;;;;;;4998319;28;20350;-56
2022/10/26 07:13:08;;;;;;;2.73;2.20;;;;;;;;;;4994552;28;20288;-57
2022/10/26 07:15:34;;;;;;;4.30;2.30;;;;;;;;;;4999600;28;20189;-51
2022/10/26 07:18:00;;;;;;;3.40;2.20;;;;;;;;;;4995944;28;20188;-52
2022/10/26 07:20:25;;;;;;;7.17;2.23;;;;;;;;;;4995309;28;20280;-49
2022/10/26 07:22:54;;;;;;;4.80;2.50;;;;;;;;;;4998203;28;20242;-51
2022/10/26 07:25:20;;;;;;;4.60;2.55;;;;;;;;;;4994595;28;20261;-51
2022/10/26 07:27:46;;;;;;;3.42;2.10;;;;;;;;;;5003232;28;20183;-47
2022/10/26 07:30:11;;;;;;;4.10;2.20;;;;;;;;;;4992351;28;20591;-60
2022/10/26 07:32:37;;;;;;;6.03;2.30;;;;;;;;;;4998053;28;20219;-58
2022/10/26 07:35:02;;;;;;;3.20;2.08;;;;;;;;;;4999283;28;20241;-62
2022/10/26 07:37:27;;;;;;;6.07;2.33;;;;;;;;;;4997529;28;20201;-60
2022/10/26 07:39:53;;;;;;;3.38;2.15;;;;;;;;;;4992808;28;20199;-56
2022/10/26 07:42:18;;;;;;;4.63;2.00;;;;;;;;;;4994887;28;20185;-56
2022/10/26 07:44:43;;;;;;;4.53;2.53;;;;;;;;;;4990508;28;20737;-60
2022/10/26 07:47:09;;;;;;;5.43;2.33;;;;;;;;;;4999857;28;20210;-60
2022/10/26 07:49:34;;;;;;;4.82;2.15;;;;;;;;;;4990358;28;20181;-60
2022/10/26 07:51:59;;;;;;;3.67;2.30;;;;;;;;;;4997859;28;20177;-59
2022/10/26 07:54:25;;;;;;;4.85;2.17;;;;;;;;;;5000086;28;20614;-59
2022/10/26 07:56:50;;;;;;;4.25;2.30;;;;;;;;;;5001374;28;20664;-54
2022/10/26 07:59:17;;;;;;;4.70;2.45;;;;;;;;;;5002771;28;20177;-53
2022/10/26 08:01:42;;;;;;;4.68;2.67;;;;;;;;;;5002452;28;20183;-56
2022/10/26 08:04:07;;;;;;;3.85;2.13;;;;;;;;;;4995831;28;20192;-53
2022/10/26 08:06:33;;;;;;;4.40;2.40;;;;;;;;;;4994000;28;20169;-55
2022/10/26 08:08:58;;;;;;;3.67;2.10;;;;;;;;;;4992366;28;20176;-55
2022/10/26 08:11:24;;;;;;;3.45;2.38;;;;;;;;;;4995660;28;20193;-55
2022/10/26 08:13:53;;;;;;;4.07;2.30;;;;;;;;;;4998066;28;20568;-55
2022/10/26 08:16:18;;;;;;;5.07;2.35;;;;;;;;;;4997547;28;20203;-55
2022/10/26 08:18:46;;;;;;;4.03;2.20;;;;;;;;;;4992851;28;20192;-56
2022/10/26 08:21:12;;;;;;;2.83;2.10;;;;;;;;;;4994508;28;20284;-56
2022/10/26 08:23:38;;;;;;;2.80;1.90;;;;;;;;;;5002331;28;20223;-54
2022/10/26 08:26:03;;;;;;;2.70;2.10;;;;;;;;;;4995095;28;20640;-56
2022/10/26 08:28:29;;;;;;;4.45;2.50;;;;;;;;;;5002579;28;20215;-54
2022/10/26 08:30:55;;;;;;;2.75;2.38;;;;;;;;;;4991220;28;20185;-54
2022/10/26 08:33:21;;;;;;;3.20;2.20;;;;;;;;;;4991970;28;20700;-57
2022/10/26 08:35:46;;;;;;;3.70;2.17;;;;;;;;;;4997837;28;20183;-57
2022/10/26 08:38:12;;;;;;;3.70;2.22;;;;;;;;;;4995896;28;20653;-57
2022/10/26 08:40:40;;;;;;;2.53;2.08;;;;;;;;;;4994360;28;20287;-57
2022/10/26 08:43:28;;;;;;;3.35;1.92;;;;;;;;;;4995113;28;20197;-58
2022/10/26 08:46:14;;;;;;;3.53;2.20;;;;;;;;;;4994805;28;20519;-58
2022/10/26 08:48:54;;;;;;;2.73;2.07;;;;;;;;;;5000413;28;20336;-58
2022/10/26 08:51:27;;;;;;;4.43;2.35;;;;;;;;;;4995764;28;20184;-57
2022/10/26 08:54:03;;;;;;;4.20;2.40;;;;;;;;;;4995401;28;20204;-56
2022/10/26 08:56:40;;;;;;;8.07;2.60;;;;;;;;;;5001035;28;20196;-55
2022/10/26 08:59:33;;;;;;;3.40;2.00;;;;;;;;;;4991879;28;20180;-50
2022/10/26 09:02:00;;;;;;;5.03;2.50;;;;;;;;;;4992391;28;20796;-56
2022/10/26 09:04:27;;;;;;;4.10;2.28;;;;;;;;;;4990740;28;20283;-53
2022/10/26 09:07:06;;;;;;;8.77;2.58;;;;;;;;;;4995938;28;20169;-52
2022/10/26 09:09:45;;;;;;;9.15;2.63;;;;;;;;;;4989488;28;20177;-53
2022/10/26 09:12:35;;;;;;;6.15;2.33;;;;;;;;;;4988770;28;20177;-53
2022/10/26 09:15:13;;;;;;;5.18;2.47;;;;;;;;;;4988321;28;20748;-54
2022/10/26 09:18:04;;;;;;;4.53;2.55;;;;;;;;;;4988696;28;20262;-50
2022/10/26 09:20:45;;;;;;;4.93;2.25;;;;;;;;;;4992058;28;20235;-50
2022/10/26 09:23:25;;;;;;;4.57;2.20;;;;;;;;;;4989898;28;20202;-54
2022/10/26 09:25:58;;;;;;;5.00;2.15;;;;;;;;;;4991353;28;20482;-52
2022/10/26 09:28:23;;;;;;;5.57;2.00;;;;;;;;;;4997658;28;20645;-55
2022/10/26 09:30:49;;;;;;;3.55;2.40;;;;;;;;;;4997213;28;20183;-51
2022/10/26 09:33:16;;;;;;;5.45;2.00;;;;;;;;;;4993227;28;20282;-53
2022/10/26 09:36:02;;;;;;;3.65;1.98;;;;;;;;;;4990967;28;20598;-56
2022/10/26 09:39:01;;;;;;;5.63;2.33;;;;;;;;;;4995409;28;20620;-57
2022/10/26 09:41:50;;;;;;;5.25;2.38;;;;;;;;;;4995112;28;20200;-50
2022/10/26 09:44:37;;;;;;;4.97;2.17;;;;;;;;;;4991064;28;20281;-54
2022/10/26 09:47:20;;;;;;;4.03;2.17;;;;;;;;;;4997867;28;20254;-53
2022/10/26 09:49:54;;;;;;;3.17;2.20;;;;;;;;;;4982919;28;20226;-52
2022/10/26 09:52:19;;;;;;;3.92;2.05;;;;;;;;;;4997633;28;20234;-53
2022/10/26 09:54:45;;;;;;;4.78;2.28;;;;;;;;;;4992198;28;20201;-54
2022/10/26 09:57:14;;;;;;;3.13;2.15;;;;;;;;;;4997465;28;20643;-54
2022/10/26 09:59:39;;;;;;;3.33;2.05;;;;;;;;;;4982147;28;20181;-53
2022/10/26 10:02:38;;;;;;;4.30;2.35;;;;;;;;;;4997973;28;20190;-54
2022/10/26 10:05:28;;;;;;;3.30;2.00;;;;;;;;;;4988932;28;20184;-49
2022/10/26 10:08:09;;;;;;;3.08;2.00;;;;;;;;;;4993278;28;20173;-57
2022/10/26 10:10:35;;;;;;;4.15;2.17;;;;;;;;;;4995395;28;20276;-55
2022/10/26 10:13:13;;;;;;;4.07;2.15;;;;;;;;;;4996542;28;20200;-53
2022/10/26 10:15:39;;;;;;;3.72;2.35;;;;;;;;;;4992524;28;20188;-54
2022/10/26 10:18:04;;;;;;;3.03;2.10;;;;;;;;;;4998146;28;20256;-53
2022/10/26 10:20:31;;;;;;;6.20;2.30;;;;;;;;;;4988658;28;20223;-55
2022/10/26 10:22:58;;;;;;;4.20;2.30;;;;;;;;;;4998854;28;20192;-54
2022/10/26 10:25:38;;;;;;;4.38;2.25;;;;;;;;;;4990113;28;20181;-54
2022/10/26 10:28:24;;;;;;;2.63;1.92;;;;;;;;;;4993716;28;20169;-55
2022/10/26 10:30:56;;;;;;;3.45;2.00;;;;;;;;;;4997453;28;20561;-58
2022/10/26 10:33:21;;;;;;;5.25;2.20;;;;;;;;;;4999205;28;20203;-64
2022/10/26 10:35:49;;;;;;;5.90;2.42;;;;;;;;;;4996414;28;20535;-63
2022/10/26 10:38:16;;;;;;;5.78;1.95;;;;;;;;;;4992469;28;20210;-65
2022/10/26 10:40:49;;;;;;;4.97;2.03;;;;;;;;;;4999083;28;20232;-56
2022/10/26 10:43:14;;;;;;;3.25;1.90;;;;;;;;;;5001773;28;20196;-62
2022/10/26 10:45:40;;;;;;;5.55;2.10;;;;;;;;;;5002815;28;20180;-54
2022/10/26 10:48:11;;;;;;;3.03;1.92;;;;;;;;;;4984053;28;20176;-54
2022/10/26 10:50:38;;;;;;;4.05;2.13;;;;;;;;;;4996344;28;20180;-60
2022/10/26 10:53:13;;;;;;;3.20;1.92;;;;;;;;;;4996250;28;20196;-60
2022/10/26 10:55:41;;;;;;;4.25;2.00;;;;;;;;;;4998599;28;20570;-58
2022/10/26 10:58:18;;;;;;;2.88;2.00;;;;;;;;;;5023619;28;20215;-58
2022/10/26 11:00:47;;;;;;;3.50;2.25;;;;;;;;;;4994312;28;20190;-57
2022/10/26 11:03:24;;;;;;;4.45;2.00;;;;;;;;;;5001469;28;20192;-63
2022/10/26 11:06:11;;;;;;;5.05;2.00;;;;;;;;;;5004218;28;20183;-61
2022/10/26 11:08:45;;;;;;;3.97;2.00;;;;;;;;;;5000413;28;20180;-61
2022/10/26 11:11:20;;;;;;;4.47;2.13;;;;;;;;;;4997138;28;20180;-60
2022/10/26 11:14:02;;;;;;;2.75;1.88;;;;;;;;;;5004717;28;20225;-61
2022/10/26 11:16:32;;;;;;;3.20;1.92;;;;;;;;;;4995870;28;20223;-60
2022/10/26 11:19:03;;;;;;;3.20;2.08;;;;;;;;;;5003450;28;20259;-58
2022/10/26 11:21:29;;;;;;;3.92;2.20;;;;;;;;;;4994825;28;20173;-59
2022/10/26 11:24:12;;;;;;;2.53;2.10;;;;;;;;;;4999077;28;20582;-62
2022/10/26 11:26:48;;;;;;;4.15;1.90;;;;;;;;;;4999301;28;20173;-62
2022/10/26 11:29:24;;;;;;;2.13;1.80;;;;;;;;;;4999929;28;20268;-62
2022/10/26 11:31:54;;;;;;;3.40;1.98;;;;;;;;;;4999509;28;20185;-61
2022/10/26 11:34:52;;;;;;;2.63;1.83;;;;;;;;;;5002583;28;20228;-63
2022/10/26 11:37:30;;;;;;;2.72;1.55;;;;;;;;;;4980585;28;20682;-55
2022/10/26 11:40:15;;;;;;;3.63;2.08;;;;;;;;;;5003315;28;20187;-52
2022/10/26 11:42:45;;;;;;;3.55;2.08;;;;;;;;;;4997950;28;20604;-55
2022/10/26 11:45:22;;;;;;;5.00;2.10;;;;;;;;;;4996529;28;20556;-55
2022/10/26 11:47:50;;;;;;;3.95;2.90;;;;;;;;;;4991178;28;20183;-55
2022/10/26 11:50:22;;;;;;;16.52;2.30;;;;;;;;;;4997009;28;20275;-54
2022/10/26 11:53:12;;;;;;;3.63;2.20;;;;;;;;;;4996580;28;20246;-54
2022/10/26 11:55:39;;;;;;;4.82;1.92;;;;;;;;;;4991420;28;20189;-54
2022/10/26 11:58:04;;;;;;;3.08;2.10;;;;;;;;;;5003344;28;20413;-54
2022/10/26 12:00:31;;;;;;;3.90;1.75;;;;;;;;;;5000427;28;20628;-54
2022/10/26 12:03:13;;;;;;;2.70;1.77;;;;;;;;;;5003782;28;20203;-53
2022/10/26 12:05:44;;;;;;;5.07;2.00;;;;;;;;;;4993847;28;20263;-58
2022/10/26 12:08:36;;;;;;;4.18;2.00;;;;;;;;;;5002274;28;20179;-59
2022/10/26 12:11:20;;;;;;;2.70;1.98;;;;;;;;;;4994151;28;20195;-58
2022/10/26 12:13:56;;;;;;;2.83;1.85;;;;;;;;;;5001826;28;20200;-60
2022/10/26 12:16:39;;;;;;;2.85;1.83;;;;;;;;;;5001253;28;20200;-62
2022/10/26 12:19:14;;;;;;;6.55;2.35;;;;;;;;;;5009871;28;20195;-63
2022/10/26 12:21:42;;;;;;;3.08;2.13;;;;;;;;;;5003041;28;20230;-63
2022/10/26 12:24:22;;;;;;;3.95;1.98;;;;;;;;;;5006417;28;20238;-64
2022/10/26 12:26:56;;;;;;;3.50;2.05;;;;;;;;;;5004930;28;20459;-58
2022/10/26 12:30:17;;;;;;;2.95;2.28;;;;;;;;;;5008100;28;20184;-58
2022/10/26 12:32:43;;;;;;;3.10;2.10;;;;;;;;;;4968080;28;20182;-60
2022/10/26 12:35:31;;;;;;;2.08;1.77;;;;;;;;;;4971926;28;20213;-61
2022/10/26 12:37:57;;;;;;;4.40;2.00;;;;;;;;;;5008019;28;20220;-62
2022/10/26 12:40:32;;;;;;;2.33;1.83;;;;;;;;;;5026653;28;20199;-59
2022/10/26 12:43:12;;;;;;;4.00;1.95;;;;;;;;;;5005706;28;20195;-59
2022/10/26 12:45:38;;;;;;;2.90;1.80;;;;;;;;;;5003290;28;20536;-59
2022/10/26 12:48:10;;;;;;;3.63;2.10;;;;;;;;;;5003422;28;20168;-59
2022/10/26 12:50:35;;;;;;;2.10;1.80;;;;;;;;;;5002305;28;20587;-59
2022/10/26 12:53:12;;;;;;;2.30;1.80;;;;;;;;;;5006732;28;20199;-59
2022/10/26 12:55:40;;;;;;;2.95;2.10;;;;;;;;;;4999326;28;20548;-60
2022/10/26 12:58:36;;;;;;;2.45;1.80;;;;;;;;;;5007115;28;20205;-60
2022/10/26 13:01:02;;;;;;;2.97;2.10;;;;;;;;;;4997304;28;20232;-57
2022/10/26 13:03:46;;;;;;;4.40;2.10;;;;;;;;;;5004773;28;20692;-59
2022/10/26 13:06:45;;;;;;;3.03;1.80;;;;;;;;;;5003309;28;20170;-59
2022/10/26 13:09:19;;;;;;;3.70;1.92;;;;;;;;;;5006142;28;20230;-57
2022/10/26 13:11:52;;;;;;;2.83;1.80;;;;;;;;;;5008846;28;20190;-59
2022/10/26 13:14:27;;;;;;;3.28;2.10;;;;;;;;;;5002850;28;20200;-54
2022/10/26 13:16:52;;;;;;;3.53;1.90;;;;;;;;;;5003124;28;20739;-55
2022/10/26 13:19:22;;;;;;;4.25;1.92;;;;;;;;;;5003109;28;20271;-55
2022/10/26 13:21:48;;;;;;;2.90;1.90;;;;;;;;;;5001469;28;20188;-55
2022/10/26 13:24:13;;;;;;;2.83;1.70;;;;;;;;;;5004907;28;20196;-54
2022/10/26 13:27:06;;;;;;;1.88;1.60;;;;;;;;;;4998584;28;20203;-55
2022/10/26 13:29:31;;;;;;;4.13;1.90;;;;;;;;;;5006174;28;20196;-54
2022/10/26 13:31:57;;;;;;;3.03;1.83;;;;;;;;;;5007506;28;20187;-55
2022/10/26 13:34:26;;;;;;;2.60;1.70;;;;;;;;;;5005848;28;20235;-55
2022/10/26 13:36:59;;;;;;;3.42;1.83;;;;;;;;;;5009433;28;20243;-55
2022/10/26 13:39:26;;;;;;;2.50;1.70;;;;;;;;;;5005086;28;20196;-55
2022/10/26 13:41:53;;;;;;;1.92;1.60;;;;;;;;;;4998516;28;20176;-55
2022/10/26 13:44:32;;;;;;;3.15;1.70;;;;;;;;;;4999413;28;20188;-56
2022/10/26 13:47:09;;;;;;;2.72;1.80;;;;;;;;;;5006626;28;20194;-56
2022/10/26 13:49:44;;;;;;;3.10;1.98;;;;;;;;;;5000170;28;20198;-55
2022/10/26 13:52:27;;;;;;;3.90;1.95;;;;;;;;;;5004874;28;20172;-57
2022/10/26 13:54:58;;;;;;;3.38;1.73;;;;;;;;;;5007452;28;20195;-60
2022/10/26 13:58:09;;;;;;;4.10;1.85;;;;;;;;;;5002247;28;20203;-58
2022/10/26 14:00:35;;;;;;;1.88;1.70;;;;;;;;;;5002383;28;20193;-59
2022/10/26 14:03:11;;;;;;;3.47;1.90;;;;;;;;;;5003722;28;20677;-59
2022/10/26 14:05:41;;;;;;;3.90;1.65;;;;;;;;;;5003779;28;20172;-57
2022/10/26 14:08:14;;;;;;;2.40;1.73;;;;;;;;;;4999261;28;20175;-57
2022/10/26 14:10:40;;;;;;;2.38;1.80;;;;;;;;;;4999897;28;20215;-59
2022/10/26 14:13:07;;;;;;;3.40;1.70;;;;;;;;;;5008431;28;20581;-52
2022/10/26 14:15:33;;;;;;;2.50;1.98;;;;;;;;;;5004640;28;20184;-48
2022/10/26 14:18:00;;;;;;;4.50;1.90;;;;;;;;;;5008956;28;20668;-54
2022/10/26 14:20:26;;;;;;;2.20;1.70;;;;;;;;;;5005514;28;20263;-48
2022/10/26 14:22:52;;;;;;;3.08;2.03;;;;;;;;;;5004731;28;20227;-49
2022/10/26 14:25:18;;;;;;;3.45;1.80;;;;;;;;;;5008900;28;20214;-53
2022/10/26 14:27:44;;;;;;;2.38;1.63;;;;;;;;;;5005652;28;20179;-51
2022/10/26 14:30:30;;;;;;;2.70;1.75;;;;;;;;;;5007112;28;20203;-60
2022/10/26 14:32:56;;;;;;;2.42;1.60;;;;;;;;;;5006434;28;20216;-60
2022/10/26 14:35:24;;;;;;;3.05;1.67;;;;;;;;;;5010889;28;20191;-60
2022/10/26 14:37:52;;;;;;;2.67;1.92;;;;;;;;;;5010283;28;20291;-59
2022/10/26 14:40:20;;;;;;;3.80;1.80;;;;;;;;;;5002157;28;20169;-63
2022/10/26 14:42:53;;;;;;;3.67;2.13;;;;;;;;;;5005780;28;20213;-55
2022/10/26 14:45:29;;;;;;;3.25;2.03;;;;;;;;;;5010395;28;20519;-56
2022/10/26 14:47:55;;;;;;;2.75;1.70;;;;;;;;;;5007154;28;20176;-55
2022/10/26 14:50:23;;;;;;;3.60;1.80;;;;;;;;;;5006681;28;20184;-58
2022/10/26 14:52:53;;;;;;;2.22;1.80;;;;;;;;;;5005880;28;20196;-55
2022/10/26 14:55:19;;;;;;;3.65;1.65;;;;;;;;;;5010052;28;20176;-57
2022/10/26 14:57:46;;;;;;;2.97;1.92;;;;;;;;;;5009068;28;20536;-53
2022/10/26 15:00:17;;;;;;;1.90;1.63;;;;;;;;;;5009816;28;20660;-56
2022/10/26 15:02:45;;;;;;;3.20;1.77;;;;;;;;;;4998694;28;20200;-58
2022/10/26 15:05:23;;;;;;;2.42;1.67;;;;;;;;;;5005196;28;20180;-62
2022/10/26 15:07:50;;;;;;;2.03;1.83;;;;;;;;;;5004974;28;20168;-61